Terminal Aerodrome Forecast
Issued by NWS

Home | Current Version | Previous Version | Text Only | Print | Product List | Glossary On
Versions: 1 2 3 4 5 6 7 8 9 10 11 12 13 14 15 16 17
000
FTAK31 PAJN 171700 RRA
TAFAPG
TAF
PAPG 171743Z 1718/1818 VRB03KT 1/2SM FG BKN002
     FM171900 05004KT P6SM BCFG FEW003 BKN025
     FM172100 05005KT P6SM VCSH FEW015 BKN035
     FM180300 VRB03KT P6SM BKN040 BKN180
     FM181200 11005KT P6SM VCSH SCT010 BKN050 OVC100
     FM181500 11006KT P6SM -RA SCT015 OVC050
      AMD LTD TO CLD VIS AND WIND 1806/1815=

USA.gov is the U.S. government's official web portal to all federal, state and local government web resources and services.